sensor_id;sensor_type;location;lat;lon;timestamp;temperature;humidity
2497;DHT22;1259;48.306;14.374;2023-05-10T00:00:43;10.30;99.90
2497;DHT22;1259;48.306;14.374;2023-05-10T00:03:10;10.40;99.90
2497;DHT22;1259;48.306;14.374;2023-05-10T00:05:37;10.40;99.90
2497;DHT22;1259;48.306;14.374;2023-05-10T00:08:03;10.30;99.90
2497;DHT22;1259;48.306;14.374;2023-05-10T00:10:30;10.40;99.90
2497;DHT22;1259;48.306;14.374;2023-05-10T00:12:57;10.30;99.90
2497;DHT22;1259;48.306;14.374;2023-05-10T00:15:23;10.30;99.90
2497;DHT22;1259;48.306;14.374;2023-05-10T00:17:51;10.40;99.90
2497;DHT22;1259;48.306;14.374;2023-05-10T00:20:18;10.30;99.90
2497;DHT22;1259;48.306;14.374;2023-05-10T00:22:45;10.30;99.90
2497;DHT22;1259;48.306;14.374;2023-05-10T00:25:11;10.20;99.90
2497;DHT22;1259;48.306;14.374;2023-05-10T00:27:38;10.30;99.90
2497;DHT22;1259;48.306;14.374;2023-05-10T00:30:05;10.20;99.90
2497;DHT22;1259;48.306;14.374;2023-05-10T00:32:32;10.30;99.90
2497;DHT22;1259;48.306;14.374;2023-05-10T00:35:00;10.30;99.90
2497;DHT22;1259;48.306;14.374;2023-05-10T00:37:27;10.30;99.90
2497;DHT22;1259;48.306;14.374;2023-05-10T00:39:54;10.30;99.90
2497;DHT22;1259;48.306;14.374;2023-05-10T00:42:21;10.40;99.90
2497;DHT22;1259;48.306;14.374;2023-05-10T00:44:47;10.40;99.90
2497;DHT22;1259;48.306;14.374;2023-05-10T00:47:14;10.40;99.90
2497;DHT22;1259;48.306;14.374;2023-05-10T00:49:41;10.40;99.90
2497;DHT22;1259;48.306;14.374;2023-05-10T00:52:10;10.40;99.90
2497;DHT22;1259;48.306;14.374;2023-05-10T00:54:37;10.40;99.90
2497;DHT22;1259;48.306;14.374;2023-05-10T00:57:04;10.40;99.90
2497;DHT22;1259;48.306;14.374;2023-05-10T00:59:30;10.40;99.90
2497;DHT22;1259;48.306;14.374;2023-05-10T01:01:57;10.50;99.90
2497;DHT22;1259;48.306;14.374;2023-05-10T01:04:24;10.60;99.90
2497;DHT22;1259;48.306;14.374;2023-05-10T01:06:51;10.60;99.90
2497;DHT22;1259;48.306;14.374;2023-05-10T01:09:20;10.50;99.90
2497;DHT22;1259;48.306;14.374;2023-05-10T01:11:47;10.60;99.90
2497;DHT22;1259;48.306;14.374;2023-05-10T01:14:14;10.60;99.90
2497;DHT22;1259;48.306;14.374;2023-05-10T01:16:41;10.60;99.90
2497;DHT22;1259;48.306;14.374;2023-05-10T01:19:11;10.60;99.90
2497;DHT22;1259;48.306;14.374;2023-05-10T01:21:43;10.60;99.90
2497;DHT22;1259;48.306;14.374;2023-05-10T01:29:57;10.60;99.90
2497;DHT22;1259;48.306;14.374;2023-05-10T01:32:29;10.60;99.90
2497;DHT22;1259;48.306;14.374;2023-05-10T01:34:59;10.60;99.90
2497;DHT22;1259;48.306;14.374;2023-05-10T01:37:29;10.70;99.90
2497;DHT22;1259;48.306;14.374;2023-05-10T01:39:58;10.70;99.90
2497;DHT22;1259;48.306;14.374;2023-05-10T01:42:28;10.70;99.90
2497;DHT22;1259;48.306;14.374;2023-05-10T01:44:58;10.60;99.90
2497;DHT22;1259;48.306;14.374;2023-05-10T01:47:28;10.70;99.90
2497;DHT22;1259;48.306;14.374;2023-05-10T01:49:59;10.60;99.90
2497;DHT22;1259;48.306;14.374;2023-05-10T01:52:30;10.70;99.90
2497;DHT22;1259;48.306;14.374;2023-05-10T01:54:59;10.60;99.90
2497;DHT22;1259;48.306;14.374;2023-05-10T01:57:27;10.60;99.90
2497;DHT22;1259;48.306;14.374;2023-05-10T01:59:57;10.60;99.90
2497;DHT22;1259;48.306;14.374;2023-05-10T02:02:24;10.60;99.90
2497;DHT22;1259;48.306;14.374;2023-05-10T02:04:52;10.60;99.90
2497;DHT22;1259;48.306;14.374;2023-05-10T02:07:21;10.60;99.90
2497;DHT22;1259;48.306;14.374;2023-05-10T02:09:48;10.60;99.90
2497;DHT22;1259;48.306;14.374;2023-05-10T02:12:15;10.60;99.90
2497;DHT22;1259;48.306;14.374;2023-05-10T02:14:42;10.60;99.90
2497;DHT22;1259;48.306;14.374;2023-05-10T02:17:09;10.60;99.90
2497;DHT22;1259;48.306;14.374;2023-05-10T02:19:37;10.50;99.90
2497;DHT22;1259;48.306;14.374;2023-05-10T02:22:04;10.40;99.90
2497;DHT22;1259;48.306;14.374;2023-05-10T02:24:33;10.40;99.90
2497;DHT22;1259;48.306;14.374;2023-05-10T02:27:01;10.40;99.90
2497;DHT22;1259;48.306;14.374;2023-05-10T02:29:28;10.40;99.90
2497;DHT22;1259;48.306;14.374;2023-05-10T02:31:56;10.40;99.90
2497;DHT22;1259;48.306;14.374;2023-05-10T02:34:24;10.40;99.90
2497;DHT22;1259;48.306;14.374;2023-05-10T02:36:52;10.40;99.90
2497;DHT22;1259;48.306;14.374;2023-05-10T02:39:19;10.40;99.90
2497;DHT22;1259;48.306;14.374;2023-05-10T02:41:47;10.40;99.90
2497;DHT22;1259;48.306;14.374;2023-05-10T02:44:15;10.40;99.90
2497;DHT22;1259;48.306;14.374;2023-05-10T02:46:43;10.40;99.90
2497;DHT22;1259;48.306;14.374;2023-05-10T02:49:11;10.30;99.90
2497;DHT22;1259;48.306;14.374;2023-05-10T02:51:39;10.40;99.90
2497;DHT22;1259;48.306;14.374;2023-05-10T02:54:09;10.40;99.90
2497;DHT22;1259;48.306;14.374;2023-05-10T02:56:39;10.60;99.90
2497;DHT22;1259;48.306;14.374;2023-05-10T02:59:08;10.60;99.90
2497;DHT22;1259;48.306;14.374;2023-05-10T03:01:35;10.70;99.90
2497;DHT22;1259;48.306;14.374;2023-05-10T03:04:02;10.80;99.90
2497;DHT22;1259;48.306;14.374;2023-05-10T03:06:28;10.80;99.90
2497;DHT22;1259;48.306;14.374;2023-05-10T03:08:55;10.80;99.90
2497;DHT22;1259;48.306;14.374;2023-05-10T03:11:28;10.80;99.90
2497;DHT22;1259;48.306;14.374;2023-05-10T03:14:02;10.70;99.90
2497;DHT22;1259;48.306;14.374;2023-05-10T03:16:35;10.80;99.90
2497;DHT22;1259;48.306;14.374;2023-05-10T03:19:10;10.80;99.90
2497;DHT22;1259;48.306;14.374;2023-05-10T03:21:39;10.80;99.90
2497;DHT22;1259;48.306;14.374;2023-05-10T03:24:09;10.80;99.90
2497;DHT22;1259;48.306;14.374;2023-05-10T03:26:37;10.50;99.90
2497;DHT22;1259;48.306;14.374;2023-05-10T03:29:04;10.40;99.90
2497;DHT22;1259;48.306;14.374;2023-05-10T03:31:31;10.50;99.90
2497;DHT22;1259;48.306;14.374;2023-05-10T03:33:59;10.60;99.90
2497;DHT22;1259;48.306;14.374;2023-05-10T03:36:26;10.50;99.90
2497;DHT22;1259;48.306;14.374;2023-05-10T03:38:53;10.30;99.90
2497;DHT22;1259;48.306;14.374;2023-05-10T03:41:20;10.30;99.90
2497;DHT22;1259;48.306;14.374;2023-05-10T03:43:47;10.30;99.90
2497;DHT22;1259;48.306;14.374;2023-05-10T03:46:13;10.50;99.90
2497;DHT22;1259;48.306;14.374;2023-05-10T03:48:40;10.60;99.90
2497;DHT22;1259;48.306;14.374;2023-05-10T03:51:08;10.60;99.90
2497;DHT22;1259;48.306;14.374;2023-05-10T03:53:35;10.70;99.90
2497;DHT22;1259;48.306;14.374;2023-05-10T03:56:02;10.80;99.90
2497;DHT22;1259;48.306;14.374;2023-05-10T03:58:28;10.80;99.90
2497;DHT22;1259;48.306;14.374;2023-05-10T04:00:55;10.80;99.90
2497;DHT22;1259;48.306;14.374;2023-05-10T04:03:22;10.80;99.90
2497;DHT22;1259;48.306;14.374;2023-05-10T04:05:48;10.90;99.90
2497;DHT22;1259;48.306;14.374;2023-05-10T04:08:16;11.00;99.90
2497;DHT22;1259;48.306;14.374;2023-05-10T04:10:43;11.10;99.90
2497;DHT22;1259;48.306;14.374;2023-05-10T04:13:10;11.20;99.90
2497;DHT22;1259;48.306;14.374;2023-05-10T04:15:36;11.10;99.90
2497;DHT22;1259;48.306;14.374;2023-05-10T04:18:03;11.10;99.90
2497;DHT22;1259;48.306;14.374;2023-05-10T04:20:31;11.10;99.90
2497;DHT22;1259;48.306;14.374;2023-05-10T04:22:58;11.30;99.90
2497;DHT22;1259;48.306;14.374;2023-05-10T04:25:26;11.20;99.90
2497;DHT22;1259;48.306;14.374;2023-05-10T04:27:53;11.20;99.90
2497;DHT22;1259;48.306;14.374;2023-05-10T04:30:20;11.20;99.90
2497;DHT22;1259;48.306;14.374;2023-05-10T04:32:46;11.10;99.90
2497;DHT22;1259;48.306;14.374;2023-05-10T04:35:13;11.20;99.90
2497;DHT22;1259;48.306;14.374;2023-05-10T04:37:40;11.30;99.90
2497;DHT22;1259;48.306;14.374;2023-05-10T04:40:07;11.40;99.90
2497;DHT22;1259;48.306;14.374;2023-05-10T04:42:35;11.50;99.90
2497;DHT22;1259;48.306;14.374;2023-05-10T04:45:02;11.50;99.90
2497;DHT22;1259;48.306;14.374;2023-05-10T04:47:29;11.50;99.90
2497;DHT22;1259;48.306;14.374;2023-05-10T04:49:55;11.50;99.90
2497;DHT22;1259;48.306;14.374;2023-05-10T04:52:22;11.50;99.90
2497;DHT22;1259;48.306;14.374;2023-05-10T04:54:49;11.30;99.90
2497;DHT22;1259;48.306;14.374;2023-05-10T04:57:16;11.50;99.90
2497;DHT22;1259;48.306;14.374;2023-05-10T04:59:44;11.30;99.90
2497;DHT22;1259;48.306;14.374;2023-05-10T05:02:10;11.40;99.90
2497;DHT22;1259;48.306;14.374;2023-05-10T05:04:37;11.50;99.90
2497;DHT22;1259;48.306;14.374;2023-05-10T05:07:04;11.50;99.90
2497;DHT22;1259;48.306;14.374;2023-05-10T05:09:30;11.50;99.90
2497;DHT22;1259;48.306;14.374;2023-05-10T05:11:58;11.60;99.90
2497;DHT22;1259;48.306;14.374;2023-05-10T05:14:24;11.60;99.90
2497;DHT22;1259;48.306;14.374;2023-05-10T05:16:52;11.30;99.90
2497;DHT22;1259;48.306;14.374;2023-05-10T05:19:19;11.50;99.90
2497;DHT22;1259;48.306;14.374;2023-05-10T05:21:46;11.50;99.90
2497;DHT22;1259;48.306;14.374;2023-05-10T05:24:12;11.40;99.90
2497;DHT22;1259;48.306;14.374;2023-05-10T05:26:39;11.30;99.90
2497;DHT22;1259;48.306;14.374;2023-05-10T05:29:06;11.00;99.90
2497;DHT22;1259;48.306;14.374;2023-05-10T05:31:32;11.20;99.90
2497;DHT22;1259;48.306;14.374;2023-05-10T05:34:00;11.20;99.90
2497;DHT22;1259;48.306;14.374;2023-05-10T05:36:27;11.50;99.90
2497;DHT22;1259;48.306;14.374;2023-05-10T05:38:54;11.40;99.90
2497;DHT22;1259;48.306;14.374;2023-05-10T05:41:20;11.50;99.90
2497;DHT22;1259;48.306;14.374;2023-05-10T05:43:49;11.40;99.90
2497;DHT22;1259;48.306;14.374;2023-05-10T05:46:15;11.40;99.90
2497;DHT22;1259;48.306;14.374;2023-05-10T05:48:42;11.30;99.90
2497;DHT22;1259;48.306;14.374;2023-05-10T05:51:10;11.30;99.90
2497;DHT22;1259;48.306;14.374;2023-05-10T05:53:37;11.20;99.90
2497;DHT22;1259;48.306;14.374;2023-05-10T05:56:04;11.00;99.90
2497;DHT22;1259;48.306;14.374;2023-05-10T05:58:31;11.00;99.90
2497;DHT22;1259;48.306;14.374;2023-05-10T06:00:57;11.00;99.90
2497;DHT22;1259;48.306;14.374;2023-05-10T06:03:24;11.00;99.90
2497;DHT22;1259;48.306;14.374;2023-05-10T06:05:51;11.00;99.90
2497;DHT22;1259;48.306;14.374;2023-05-10T06:08:19;11.10;99.90
2497;DHT22;1259;48.306;14.374;2023-05-10T06:10:45;11.20;99.90
2497;DHT22;1259;48.306;14.374;2023-05-10T06:13:12;11.40;99.90
2497;DHT22;1259;48.306;14.374;2023-05-10T06:15:39;11.30;99.90
2497;DHT22;1259;48.306;14.374;2023-05-10T06:18:06;11.50;99.90
2497;DHT22;1259;48.306;14.374;2023-05-10T06:20:32;11.60;99.90
2497;DHT22;1259;48.306;14.374;2023-05-10T06:22:59;11.80;99.90
2497;DHT22;1259;48.306;14.374;2023-05-10T06:25:27;11.90;99.90
2497;DHT22;1259;48.306;14.374;2023-05-10T06:27:54;12.00;99.90
2497;DHT22;1259;48.306;14.374;2023-05-10T06:30:23;12.10;99.90
2497;DHT22;1259;48.306;14.374;2023-05-10T06:32:52;12.00;99.90
2497;DHT22;1259;48.306;14.374;2023-05-10T06:35:19;12.00;99.90
2497;DHT22;1259;48.306;14.374;2023-05-10T06:37:46;11.90;99.90
2497;DHT22;1259;48.306;14.374;2023-05-10T06:40:13;11.80;99.90
2497;DHT22;1259;48.306;14.374;2023-05-10T06:42:41;11.80;99.90
2497;DHT22;1259;48.306;14.374;2023-05-10T06:45:08;11.90;99.90
2497;DHT22;1259;48.306;14.374;2023-05-10T06:47:35;11.80;99.90
2497;DHT22;1259;48.306;14.374;2023-05-10T06:50:01;11.90;99.90
2497;DHT22;1259;48.306;14.374;2023-05-10T06:52:28;11.90;99.90
2497;DHT22;1259;48.306;14.374;2023-05-10T06:54:55;12.10;99.90
2497;DHT22;1259;48.306;14.374;2023-05-10T06:57:22;12.00;99.90
2497;DHT22;1259;48.306;14.374;2023-05-10T06:59:50;11.80;99.90
2497;DHT22;1259;48.306;14.374;2023-05-10T07:02:16;11.90;99.90
2497;DHT22;1259;48.306;14.374;2023-05-10T07:04:43;12.00;99.90
2497;DHT22;1259;48.306;14.374;2023-05-10T07:07:10;12.10;99.90
2497;DHT22;1259;48.306;14.374;2023-05-10T07:09:37;12.10;99.90
2497;DHT22;1259;48.306;14.374;2023-05-10T07:12:03;12.10;99.90
2497;DHT22;1259;48.306;14.374;2023-05-10T07:14:30;12.10;99.90
2497;DHT22;1259;48.306;14.374;2023-05-10T07:16:58;12.10;99.90
2497;DHT22;1259;48.306;14.374;2023-05-10T07:19:25;12.10;99.90
2497;DHT22;1259;48.306;14.374;2023-05-10T07:21:51;12.30;99.90
2497;DHT22;1259;48.306;14.374;2023-05-10T07:24:18;12.30;99.90
2497;DHT22;1259;48.306;14.374;2023-05-10T07:26:45;12.30;99.90
2497;DHT22;1259;48.306;14.374;2023-05-10T07:29:12;12.30;99.90
2497;DHT22;1259;48.306;14.374;2023-05-10T07:31:38;12.20;99.90
2497;DHT22;1259;48.306;14.374;2023-05-10T07:34:08;12.20;99.90
2497;DHT22;1259;48.306;14.374;2023-05-10T07:36:35;12.30;99.90
2497;DHT22;1259;48.306;14.374;2023-05-10T07:39:02;12.20;99.90
2497;DHT22;1259;48.306;14.374;2023-05-10T07:41:29;12.10;99.90
2497;DHT22;1259;48.306;14.374;2023-05-10T07:43:55;11.90;99.90
2497;DHT22;1259;48.306;14.374;2023-05-10T07:46:22;12.10;99.90
2497;DHT22;1259;48.306;14.374;2023-05-10T07:48:48;12.00;99.90
2497;DHT22;1259;48.306;14.374;2023-05-10T07:51:16;12.00;99.90
2497;DHT22;1259;48.306;14.374;2023-05-10T07:53:43;11.90;99.90
2497;DHT22;1259;48.306;14.374;2023-05-10T07:56:20;12.00;99.90
2497;DHT22;1259;48.306;14.374;2023-05-10T07:58:47;12.20;99.90
2497;DHT22;1259;48.306;14.374;2023-05-10T08:01:14;12.30;99.90
2497;DHT22;1259;48.306;14.374;2023-05-10T08:03:40;12.20;99.90
2497;DHT22;1259;48.306;14.374;2023-05-10T08:06:07;12.30;99.90
2497;DHT22;1259;48.306;14.374;2023-05-10T08:08:35;12.10;99.90
2497;DHT22;1259;48.306;14.374;2023-05-10T08:11:02;12.20;99.90
2497;DHT22;1259;48.306;14.374;2023-05-10T08:13:28;11.90;99.90
2497;DHT22;1259;48.306;14.374;2023-05-10T08:15:56;11.70;99.90
2497;DHT22;1259;48.306;14.374;2023-05-10T08:18:23;11.50;99.90
2497;DHT22;1259;48.306;14.374;2023-05-10T08:20:50;11.50;99.90
2497;DHT22;1259;48.306;14.374;2023-05-10T08:23:16;11.50;99.90
2497;DHT22;1259;48.306;14.374;2023-05-10T08:25:44;11.20;99.90
2497;DHT22;1259;48.306;14.374;2023-05-10T08:28:11;11.30;99.90
2497;DHT22;1259;48.306;14.374;2023-05-10T08:30:38;11.10;99.90
2497;DHT22;1259;48.306;14.374;2023-05-10T08:33:04;10.90;99.90
2497;DHT22;1259;48.306;14.374;2023-05-10T08:35:31;10.80;99.90
2497;DHT22;1259;48.306;14.374;2023-05-10T08:37:58;10.50;99.90
2497;DHT22;1259;48.306;14.374;2023-05-10T08:40:25;10.50;99.90
2497;DHT22;1259;48.306;14.374;2023-05-10T08:42:55;10.50;99.90
2497;DHT22;1259;48.306;14.374;2023-05-10T08:45:23;10.70;99.90
2497;DHT22;1259;48.306;14.374;2023-05-10T08:47:50;10.80;99.90
2497;DHT22;1259;48.306;14.374;2023-05-10T08:50:18;10.60;99.90
2497;DHT22;1259;48.306;14.374;2023-05-10T08:52:47;10.30;99.90
2497;DHT22;1259;48.306;14.374;2023-05-10T08:55:14;10.40;99.90
2497;DHT22;1259;48.306;14.374;2023-05-10T08:57:41;10.30;99.90
2497;DHT22;1259;48.306;14.374;2023-05-10T09:00:11;10.50;99.90
2497;DHT22;1259;48.306;14.374;2023-05-10T09:02:38;10.40;99.90
2497;DHT22;1259;48.306;14.374;2023-05-10T09:05:05;10.40;99.90
2497;DHT22;1259;48.306;14.374;2023-05-10T09:07:32;10.50;99.90
2497;DHT22;1259;48.306;14.374;2023-05-10T09:09:59;10.40;99.90
2497;DHT22;1259;48.306;14.374;2023-05-10T09:12:26;10.40;99.90
2497;DHT22;1259;48.306;14.374;2023-05-10T09:14:53;10.40;99.90
2497;DHT22;1259;48.306;14.374;2023-05-10T09:17:22;10.20;99.90
2497;DHT22;1259;48.306;14.374;2023-05-10T09:19:49;10.20;99.90
2497;DHT22;1259;48.306;14.374;2023-05-10T09:22:16;10.20;99.90
2497;DHT22;1259;48.306;14.374;2023-05-10T09:24:43;10.30;99.90
2497;DHT22;1259;48.306;14.374;2023-05-10T09:27:10;10.20;99.90
2497;DHT22;1259;48.306;14.374;2023-05-10T09:29:41;10.20;99.90
2497;DHT22;1259;48.306;14.374;2023-05-10T09:32:07;10.20;99.90
2497;DHT22;1259;48.306;14.374;2023-05-10T09:34:35;10.30;99.90
2497;DHT22;1259;48.306;14.374;2023-05-10T09:37:05;10.40;99.90
2497;DHT22;1259;48.306;14.374;2023-05-10T09:39:33;10.40;99.90
2497;DHT22;1259;48.306;14.374;2023-05-10T09:42:01;10.60;99.90
2497;DHT22;1259;48.306;14.374;2023-05-10T09:44:29;10.50;99.90
2497;DHT22;1259;48.306;14.374;2023-05-10T09:46:56;10.40;99.90
2497;DHT22;1259;48.306;14.374;2023-05-10T09:49:23;10.30;99.90
2497;DHT22;1259;48.306;14.374;2023-05-10T09:52:01;10.40;99.90
2497;DHT22;1259;48.306;14.374;2023-05-10T09:54:28;10.50;99.90
2497;DHT22;1259;48.306;14.374;2023-05-10T09:56:55;10.40;99.90
2497;DHT22;1259;48.306;14.374;2023-05-10T09:59:22;10.40;99.90
2497;DHT22;1259;48.306;14.374;2023-05-10T10:01:51;10.50;99.90
2497;DHT22;1259;48.306;14.374;2023-05-10T10:04:18;10.50;99.90
2497;DHT22;1259;48.306;14.374;2023-05-10T10:06:46;10.40;99.90
2497;DHT22;1259;48.306;14.374;2023-05-10T10:09:14;10.50;99.90
2497;DHT22;1259;48.306;14.374;2023-05-10T10:11:41;10.60;99.90
2497;DHT22;1259;48.306;14.374;2023-05-10T10:14:07;10.70;99.90
2497;DHT22;1259;48.306;14.374;2023-05-10T10:16:34;10.80;99.90
2497;DHT22;1259;48.306;14.374;2023-05-10T10:19:01;11.00;99.90
2497;DHT22;1259;48.306;14.374;2023-05-10T10:21:27;11.00;99.90
2497;DHT22;1259;48.306;14.374;2023-05-10T10:23:54;11.00;99.90
2497;DHT22;1259;48.306;14.374;2023-05-10T10:26:22;11.00;99.90
2497;DHT22;1259;48.306;14.374;2023-05-10T10:28:51;11.00;99.90
2497;DHT22;1259;48.306;14.374;2023-05-10T10:31:25;11.00;99.90
2497;DHT22;1259;48.306;14.374;2023-05-10T10:33:56;11.20;99.90
2497;DHT22;1259;48.306;14.374;2023-05-10T10:36:25;11.40;99.90
2497;DHT22;1259;48.306;14.374;2023-05-10T10:38:57;11.30;99.90
2497;DHT22;1259;48.306;14.374;2023-05-10T10:41:33;11.60;99.90
2497;DHT22;1259;48.306;14.374;2023-05-10T10:46:58;11.70;99.90
2497;DHT22;1259;48.306;14.374;2023-05-10T10:49:25;11.90;99.90
2497;DHT22;1259;48.306;14.374;2023-05-10T10:54:37;11.80;99.90
2497;DHT22;1259;48.306;14.374;2023-05-10T10:57:11;11.80;99.90
2497;DHT22;1259;48.306;14.374;2023-05-10T10:59:41;11.80;99.90
2497;DHT22;1259;48.306;14.374;2023-05-10T11:02:08;11.70;99.90
2497;DHT22;1259;48.306;14.374;2023-05-10T11:04:41;11.70;99.90
2497;DHT22;1259;48.306;14.374;2023-05-10T11:07:17;11.80;99.90
2497;DHT22;1259;48.306;14.374;2023-05-10T11:09:44;11.80;99.90
2497;DHT22;1259;48.306;14.374;2023-05-10T11:12:12;11.90;99.90
2497;DHT22;1259;48.306;14.374;2023-05-10T11:14:39;11.70;99.90
2497;DHT22;1259;48.306;14.374;2023-05-10T11:20:02;11.80;99.90
2497;DHT22;1259;48.306;14.374;2023-05-10T11:22:29;11.90;99.90
2497;DHT22;1259;48.306;14.374;2023-05-10T11:25:15;12.00;99.90
2497;DHT22;1259;48.306;14.374;2023-05-10T11:27:43;11.90;99.90
2497;DHT22;1259;48.306;14.374;2023-05-10T11:30:10;12.00;99.90
2497;DHT22;1259;48.306;14.374;2023-05-10T11:32:37;12.00;99.90
2497;DHT22;1259;48.306;14.374;2023-05-10T11:35:06;12.00;99.90
2497;DHT22;1259;48.306;14.374;2023-05-10T11:37:33;12.00;99.90
2497;DHT22;1259;48.306;14.374;2023-05-10T11:40:00;12.10;99.90
2497;DHT22;1259;48.306;14.374;2023-05-10T11:42:27;12.20;99.90
2497;DHT22;1259;48.306;14.374;2023-05-10T11:44:55;12.40;99.90
2497;DHT22;1259;48.306;14.374;2023-05-10T11:47:22;12.20;99.90
2497;DHT22;1259;48.306;14.374;2023-05-10T11:49:49;12.10;99.90
2497;DHT22;1259;48.306;14.374;2023-05-10T11:52:15;12.20;99.90
2497;DHT22;1259;48.306;14.374;2023-05-10T11:54:45;12.20;99.90
2497;DHT22;1259;48.306;14.374;2023-05-10T11:57:12;12.10;99.90
2497;DHT22;1259;48.306;14.374;2023-05-10T11:59:41;12.20;99.90
2497;DHT22;1259;48.306;14.374;2023-05-10T12:02:09;12.40;99.90
2497;DHT22;1259;48.306;14.374;2023-05-10T12:04:36;12.30;99.90
2497;DHT22;1259;48.306;14.374;2023-05-10T12:07:03;12.50;99.90
2497;DHT22;1259;48.306;14.374;2023-05-10T12:09:30;12.70;99.90
2497;DHT22;1259;48.306;14.374;2023-05-10T12:11:56;12.70;99.90
2497;DHT22;1259;48.306;14.374;2023-05-10T12:14:23;12.80;99.90
2497;DHT22;1259;48.306;14.374;2023-05-10T12:16:50;13.00;99.90
2497;DHT22;1259;48.306;14.374;2023-05-10T12:19:19;13.10;99.90
2497;DHT22;1259;48.306;14.374;2023-05-10T12:21:46;13.10;99.90
2497;DHT22;1259;48.306;14.374;2023-05-10T12:24:13;13.20;99.90
2497;DHT22;1259;48.306;14.374;2023-05-10T12:26:41;13.20;99.90
2497;DHT22;1259;48.306;14.374;2023-05-10T12:29:11;13.30;99.90
2497;DHT22;1259;48.306;14.374;2023-05-10T12:31:48;13.20;99.90
2497;DHT22;1259;48.306;14.374;2023-05-10T12:34:23;13.30;99.90
2497;DHT22;1259;48.306;14.374;2023-05-10T12:36:50;13.20;99.90
2497;DHT22;1259;48.306;14.374;2023-05-10T12:39:17;13.30;99.90
2497;DHT22;1259;48.306;14.374;2023-05-10T12:41:44;13.20;99.90
2497;DHT22;1259;48.306;14.374;2023-05-10T12:44:10;13.40;99.90
2497;DHT22;1259;48.306;14.374;2023-05-10T12:46:37;13.40;99.90
2497;DHT22;1259;48.306;14.374;2023-05-10T12:49:04;13.40;99.90
2497;DHT22;1259;48.306;14.374;2023-05-10T12:51:32;13.40;99.90
2497;DHT22;1259;48.306;14.374;2023-05-10T12:53:58;13.40;99.90
2497;DHT22;1259;48.306;14.374;2023-05-10T12:56:25;13.40;99.90
2497;DHT22;1259;48.306;14.374;2023-05-10T12:58:52;13.50;99.90
2497;DHT22;1259;48.306;14.374;2023-05-10T13:01:18;13.50;99.90
2497;DHT22;1259;48.306;14.374;2023-05-10T13:03:45;13.40;99.90
2497;DHT22;1259;48.306;14.374;2023-05-10T13:06:13;13.40;99.90
2497;DHT22;1259;48.306;14.374;2023-05-10T13:08:41;13.50;99.90
2497;DHT22;1259;48.306;14.374;2023-05-10T13:11:07;13.50;99.90
2497;DHT22;1259;48.306;14.374;2023-05-10T13:13:34;13.60;99.90
2497;DHT22;1259;48.306;14.374;2023-05-10T13:16:01;13.50;99.90
2497;DHT22;1259;48.306;14.374;2023-05-10T13:18:27;13.60;99.90
2497;DHT22;1259;48.306;14.374;2023-05-10T13:20:54;13.60;99.90
2497;DHT22;1259;48.306;14.374;2023-05-10T13:23:21;13.60;99.90
2497;DHT22;1259;48.306;14.374;2023-05-10T13:25:49;13.70;99.90
2497;DHT22;1259;48.306;14.374;2023-05-10T13:28:16;13.70;99.90
2497;DHT22;1259;48.306;14.374;2023-05-10T13:30:42;13.70;99.90
2497;DHT22;1259;48.306;14.374;2023-05-10T13:33:09;13.70;99.90
2497;DHT22;1259;48.306;14.374;2023-05-10T13:35:36;13.70;99.90
2497;DHT22;1259;48.306;14.374;2023-05-10T13:38:02;13.80;99.90
2497;DHT22;1259;48.306;14.374;2023-05-10T13:40:29;13.80;99.90
2497;DHT22;1259;48.306;14.374;2023-05-10T13:42:57;13.90;99.90
2497;DHT22;1259;48.306;14.374;2023-05-10T13:45:24;13.90;99.90
2497;DHT22;1259;48.306;14.374;2023-05-10T13:47:52;14.00;99.90
2497;DHT22;1259;48.306;14.374;2023-05-10T13:50:19;13.90;99.90
2497;DHT22;1259;48.306;14.374;2023-05-10T13:52:45;13.90;99.90
2497;DHT22;1259;48.306;14.374;2023-05-10T13:55:12;13.90;99.90
2497;DHT22;1259;48.306;14.374;2023-05-10T13:57:39;14.00;99.90
2497;DHT22;1259;48.306;14.374;2023-05-10T14:00:08;14.00;99.90
2497;DHT22;1259;48.306;14.374;2023-05-10T14:02:35;14.10;99.90
2497;DHT22;1259;48.306;14.374;2023-05-10T14:05:01;14.00;99.90
2497;DHT22;1259;48.306;14.374;2023-05-10T14:07:28;14.10;99.90
2497;DHT22;1259;48.306;14.374;2023-05-10T14:09:55;14.10;99.90
2497;DHT22;1259;48.306;14.374;2023-05-10T14:12:21;14.10;99.90
2497;DHT22;1259;48.306;14.374;2023-05-10T14:14:48;14.10;99.90
2497;DHT22;1259;48.306;14.374;2023-05-10T14:17:16;14.10;99.90
2497;DHT22;1259;48.306;14.374;2023-05-10T14:19:43;14.10;99.90
2497;DHT22;1259;48.306;14.374;2023-05-10T14:22:09;14.10;99.90
2497;DHT22;1259;48.306;14.374;2023-05-10T14:24:37;14.10;99.90
2497;DHT22;1259;48.306;14.374;2023-05-10T14:27:04;14.10;99.90
2497;DHT22;1259;48.306;14.374;2023-05-10T14:29:31;14.10;99.90
2497;DHT22;1259;48.306;14.374;2023-05-10T14:31:58;14.10;99.90
2497;DHT22;1259;48.306;14.374;2023-05-10T14:46:54;13.80;99.90
2497;DHT22;1259;48.306;14.374;2023-05-10T14:49:21;13.80;99.90
2497;DHT22;1259;48.306;14.374;2023-05-10T14:51:50;13.80;99.90
2497;DHT22;1259;48.306;14.374;2023-05-10T14:54:16;13.80;99.90
2497;DHT22;1259;48.306;14.374;2023-05-10T14:56:43;13.80;99.90
2497;DHT22;1259;48.306;14.374;2023-05-10T15:41:07;13.70;99.90
2497;DHT22;1259;48.306;14.374;2023-05-10T15:43:33;13.70;99.90
2497;DHT22;1259;48.306;14.374;2023-05-10T15:46:00;13.80;99.90
2497;DHT22;1259;48.306;14.374;2023-05-10T15:48:27;13.80;99.90
2497;DHT22;1259;48.306;14.374;2023-05-10T15:50:56;13.80;99.90
2497;DHT22;1259;48.306;14.374;2023-05-10T15:53:23;13.70;99.90
2497;DHT22;1259;48.306;14.374;2023-05-10T15:55:50;13.70;99.90
2497;DHT22;1259;48.306;14.374;2023-05-10T15:58:18;13.80;99.90
2497;DHT22;1259;48.306;14.374;2023-05-10T16:00:44;13.70;99.90
2497;DHT22;1259;48.306;14.374;2023-05-10T16:03:11;13.70;99.90
2497;DHT22;1259;48.306;14.374;2023-05-10T16:05:38;13.70;99.90
2497;DHT22;1259;48.306;14.374;2023-05-10T16:08:05;13.70;99.90
2497;DHT22;1259;48.306;14.374;2023-05-10T16:10:31;13.70;99.90
2497;DHT22;1259;48.306;14.374;2023-05-10T16:12:58;13.70;99.90
2497;DHT22;1259;48.306;14.374;2023-05-10T16:15:28;13.70;99.90
2497;DHT22;1259;48.306;14.374;2023-05-10T16:17:54;13.80;99.90
2497;DHT22;1259;48.306;14.374;2023-05-10T16:20:22;13.80;99.90
2497;DHT22;1259;48.306;14.374;2023-05-10T16:22:48;13.70;99.90
2497;DHT22;1259;48.306;14.374;2023-05-10T16:25:15;13.60;99.90
2497;DHT22;1259;48.306;14.374;2023-05-10T16:27:42;13.50;99.90
2497;DHT22;1259;48.306;14.374;2023-05-10T16:30:09;13.60;99.90
2497;DHT22;1259;48.306;14.374;2023-05-10T16:32:37;13.60;99.90
2497;DHT22;1259;48.306;14.374;2023-05-10T16:35:04;13.70;99.90
2497;DHT22;1259;48.306;14.374;2023-05-10T16:37:30;13.70;99.90
2497;DHT22;1259;48.306;14.374;2023-05-10T16:39:57;13.70;99.90
2497;DHT22;1259;48.306;14.374;2023-05-10T16:42:24;13.80;99.90
2497;DHT22;1259;48.306;14.374;2023-05-10T16:44:51;13.70;99.90
2497;DHT22;1259;48.306;14.374;2023-05-10T16:50:16;13.40;99.90
2497;DHT22;1259;48.306;14.374;2023-05-10T16:52:43;13.30;99.90
2497;DHT22;1259;48.306;14.374;2023-05-10T16:55:10;13.30;99.90
2497;DHT22;1259;48.306;14.374;2023-05-10T16:57:36;13.40;99.90